createdAt,value
2022-08-17T00:00:59.050Z,13.71
2022-08-17T00:01:51.611Z,12.98
2022-08-17T00:02:43.085Z,14.29
2022-08-17T00:03:25.045Z,14.44
2022-08-17T00:04:12.048Z,14.63
2022-08-17T00:04:50.464Z,13.23
2022-08-17T00:05:43.938Z,12.60
2022-08-17T00:06:29.991Z,12.68
2022-08-17T00:07:23.917Z,13.06
2022-08-17T00:08:18.990Z,12.80
2022-08-17T00:09:18.746Z,13.49
2022-08-17T00:10:12.935Z,13.10
2022-08-17T00:11:07.954Z,11.76
2022-08-17T00:12:35.058Z,11.07
2022-08-17T00:12:53.204Z,12.25
2022-08-17T00:13:56.928Z,13.50
2022-08-17T00:14:31.111Z,13.31
2022-08-17T00:15:19.928Z,11.77
2022-08-17T00:15:54.038Z,11.43
2022-08-17T00:16:56.375Z,11.54
2022-08-17T00:17:38.033Z,10.98
2022-08-17T00:19:00.936Z,11.15
2022-08-17T00:19:45.985Z,11.05
2022-08-17T00:20:39.990Z,10.00
2022-08-17T00:21:56.399Z,10.26
2022-08-17T00:22:50.288Z,10.64
2022-08-17T00:23:49.084Z,12.36
2022-08-17T00:24:43.019Z,12.69
2022-08-17T00:25:37.002Z,12.14
2022-08-17T00:26:34.554Z,12.74
2022-08-17T00:27:37.958Z,12.04
2022-08-17T00:28:18.935Z,12.70
2022-08-17T00:29:00.969Z,12.25
2022-08-17T00:29:40.897Z,11.50
2022-08-17T00:30:21.009Z,12.34
2022-08-17T00:31:01.920Z,12.63
2022-08-17T00:31:43.015Z,12.25
2022-08-17T00:33:15.192Z,11.59
2022-08-17T00:33:40.955Z,11.90
2022-08-17T00:34:34.924Z,12.48
2022-08-17T00:35:31.885Z,11.30
2022-08-17T00:36:27.920Z,11.91
2022-08-17T00:37:21.927Z,12.31
2022-08-17T00:38:16.932Z,12.07
2022-08-17T00:39:04.040Z,11.56
2022-08-17T00:39:38.606Z,11.61
2022-08-17T00:40:26.895Z,12.27
2022-08-17T00:41:27.073Z,11.50
2022-08-17T00:42:24.499Z,12.24
2022-08-17T00:43:00.036Z,13.11
2022-08-17T00:43:53.009Z,13.04
2022-08-17T00:44:33.970Z,11.19
2022-08-17T00:45:31.072Z,10.94
2022-08-17T00:46:42.885Z,11.02
2022-08-17T00:47:36.928Z,12.05
2022-08-17T00:48:31.018Z,12.56
2022-08-17T00:49:30.041Z,12.31
2022-08-17T00:50:13.940Z,13.59
2022-08-17T00:51:13.988Z,14.81
2022-08-17T00:52:02.889Z,14.26
2022-08-17T00:53:00.957Z,13.57
2022-08-17T00:53:45.887Z,12.84
2022-08-17T00:54:33.253Z,13.23
2022-08-17T00:55:22.930Z,12.46
2022-08-17T00:56:05.986Z,13.30
2022-08-17T00:56:57.895Z,13.45
2022-08-17T00:57:42.989Z,13.45
2022-08-17T00:58:36.241Z,15.95
2022-08-17T00:59:19.988Z,15.39
2022-08-17T01:00:06.887Z,12.54
2022-08-17T01:00:49.971Z,12.30
2022-08-17T01:01:23.988Z,11.81
2022-08-17T01:02:14.857Z,11.39
2022-08-17T01:02:51.078Z,11.79
2022-08-17T01:03:37.882Z,13.81
2022-08-17T01:04:11.998Z,15.75
2022-08-17T01:04:59.912Z,14.98
2022-08-17T01:05:38.861Z,16.52
2022-08-17T01:06:23.914Z,13.99
2022-08-17T01:07:04.961Z,13.16
2022-08-17T01:07:44.865Z,14.56
2022-08-17T01:08:25.995Z,14.11
2022-08-17T01:09:07.905Z,13.90
2022-08-17T01:09:49.014Z,14.11
2022-08-17T01:11:00.335Z,13.90
2022-08-17T01:11:47.041Z,12.35
2022-08-17T01:12:40.886Z,12.46
2022-08-17T01:13:40.835Z,12.64
2022-08-17T01:14:37.881Z,13.40
2022-08-17T01:15:31.888Z,14.55
2022-08-17T01:16:50.966Z,13.98
2022-08-17T01:17:32.937Z,13.50
2022-08-17T01:18:15.047Z,15.23
2022-08-17T01:19:00.131Z,17.74
2022-08-17T01:19:46.112Z,19.84
2022-08-17T01:20:25.958Z,19.08
2022-08-17T01:21:14.008Z,17.89
2022-08-17T01:22:03.942Z,16.26
2022-08-17T01:22:44.079Z,16.13
2022-08-17T01:23:29.959Z,20.74
2022-08-17T01:24:16.132Z,23.16
2022-08-17T01:25:07.887Z,21.06
2022-08-17T01:25:49.184Z,17.99
2022-08-17T01:26:31.096Z,17.25
2022-08-17T01:27:22.936Z,16.85
2022-08-17T01:28:52.540Z,15.81
2022-08-17T01:29:32.899Z,15.71
2022-08-17T01:30:56.978Z,16.86
2022-08-17T01:31:50.179Z,17.21
2022-08-17T01:32:38.889Z,16.14
2022-08-17T01:33:13.407Z,15.48
2022-08-17T01:34:09.031Z,15.93
2022-08-17T01:34:44.327Z,16.48
2022-08-17T01:35:38.927Z,15.21
2022-08-17T01:36:14.035Z,17.16
2022-08-17T01:37:00.945Z,15.60
2022-08-17T01:37:52.009Z,16.09
2022-08-17T01:38:53.934Z,18.88
2022-08-17T01:39:54.969Z,16.08
2022-08-17T01:40:57.333Z,17.64
2022-08-17T01:41:54.461Z,18.81
2022-08-17T01:43:26.725Z,17.81
2022-08-17T01:46:20.145Z,18.35
2022-08-17T01:47:31.686Z,18.73
2022-08-17T01:48:54.958Z,18.51
2022-08-17T01:49:28.941Z,18.34
2022-08-17T01:50:21.914Z,18.42
2022-08-17T01:51:00.350Z,19.19
2022-08-17T01:51:52.949Z,18.89
2022-08-17T01:52:30.729Z,17.50
2022-08-17T01:53:31.908Z,17.79
2022-08-17T01:54:16.877Z,18.49
2022-08-17T01:55:10.968Z,18.95
2022-08-17T01:56:12.008Z,18.17
2022-08-17T01:57:06.930Z,20.01
2022-08-17T01:58:01.316Z,18.34
2022-08-17T01:58:56.876Z,17.89
2022-08-17T01:59:36.923Z,18.24
2022-08-17T02:00:19.296Z,16.50
2022-08-17T02:01:01.663Z,17.05
2022-08-17T02:01:43.594Z,18.36
2022-08-17T02:02:31.304Z,17.94
2022-08-17T02:03:13.034Z,17.80
2022-08-17T02:04:00.986Z,19.86
2022-08-17T02:04:52.172Z,20.21
2022-08-17T02:05:45.929Z,19.15
2022-08-17T02:06:52.697Z,18.95
2022-08-17T02:07:59.857Z,19.91
2022-08-17T02:09:01.957Z,19.86
2022-08-17T02:09:56.968Z,18.40
2022-08-17T02:10:51.157Z,17.86
2022-08-17T02:11:48.836Z,18.74
2022-08-17T02:12:44.939Z,18.02
2022-08-17T02:13:39.921Z,19.20
2022-08-17T02:14:33.878Z,20.98
2022-08-17T02:15:21.905Z,20.74
2022-08-17T02:15:55.924Z,18.35
2022-08-17T02:16:46.901Z,18.00
2022-08-17T02:17:22.138Z,17.45
2022-08-17T02:18:44.013Z,18.26
2022-08-17T02:19:50.739Z,19.74
2022-08-17T02:20:42.577Z,20.27
2022-08-17T02:21:16.990Z,20.84
2022-08-17T02:22:03.947Z,19.92
2022-08-17T02:22:37.969Z,20.66
2022-08-17T02:23:25.889Z,19.88
2022-08-17T02:24:00.209Z,18.52
2022-08-17T02:24:59.900Z,19.77
2022-08-17T02:25:38.002Z,20.30
2022-08-17T02:26:25.701Z,18.00
2022-08-17T02:27:07.027Z,17.35
2022-08-17T02:27:49.916Z,18.17
2022-08-17T02:28:30.095Z,17.41
2022-08-17T02:29:10.859Z,17.50
2022-08-17T02:29:53.288Z,16.83
2022-08-17T02:31:01.909Z,18.20
2022-08-17T02:31:41.857Z,19.49
2022-08-17T02:32:27.815Z,17.17
2022-08-17T02:33:15.797Z,17.59
2022-08-17T02:34:00.282Z,19.60
2022-08-17T02:34:51.861Z,21.63
2022-08-17T02:35:26.978Z,21.04
2022-08-17T02:36:17.867Z,21.17
2022-08-17T02:36:59.880Z,19.41
2022-08-17T02:37:55.475Z,18.73
2022-08-17T02:38:50.817Z,19.26
2022-08-17T02:39:44.850Z,20.05
2022-08-17T02:40:38.866Z,18.50
2022-08-17T02:41:32.820Z,17.77
2022-08-17T02:42:21.870Z,17.03
2022-08-17T02:42:55.905Z,17.52
2022-08-17T02:43:42.803Z,18.09
2022-08-17T02:44:35.415Z,17.05
2022-08-17T02:45:27.883Z,16.54
2022-08-17T02:46:01.956Z,17.64
2022-08-17T02:46:48.893Z,17.55
2022-08-17T02:47:29.908Z,17.83
2022-08-17T02:48:30.451Z,16.50
2022-08-17T02:49:25.822Z,17.41
2022-08-17T02:50:21.812Z,20.16
2022-08-17T02:51:16.860Z,19.26
2022-08-17T02:52:12.782Z,19.73
2022-08-17T02:53:02.517Z,18.41
2022-08-17T02:53:44.922Z,18.16
2022-08-17T02:54:40.717Z,17.75
2022-08-17T02:55:34.251Z,17.13
2022-08-17T02:56:14.806Z,16.94
2022-08-17T02:56:55.368Z,16.51
2022-08-17T02:57:36.839Z,17.73
2022-08-17T02:58:35.486Z,17.44
2022-08-17T02:59:09.849Z,18.23
2022-08-17T02:59:57.790Z,17.34
2022-08-17T03:00:44.187Z,16.13
2022-08-17T03:01:30.868Z,14.81
2022-08-17T03:02:04.968Z,14.34
2022-08-17T03:02:52.873Z,14.29
2022-08-17T03:03:33.837Z,14.82
2022-08-17T03:04:27.786Z,15.66
2022-08-17T03:05:24.849Z,15.85
2022-08-17T03:06:20.806Z,16.23
2022-08-17T03:07:14.811Z,16.85
2022-08-17T03:08:12.947Z,18.11
2022-08-17T03:08:54.845Z,17.61
2022-08-17T03:09:35.219Z,16.79
2022-08-17T03:10:16.805Z,17.89
2022-08-17T03:10:56.889Z,17.92
2022-08-17T03:11:36.846Z,17.85
2022-08-17T03:12:21.073Z,18.01
2022-08-17T03:13:01.814Z,17.54
2022-08-17T03:13:41.859Z,18.64
2022-08-17T03:14:21.826Z,17.71
2022-08-17T03:15:17.865Z,16.74
2022-08-17T03:15:58.866Z,17.65
2022-08-17T03:16:38.961Z,17.49
2022-08-17T03:17:19.795Z,17.44
2022-08-17T03:18:01.877Z,16.89
2022-08-17T03:18:42.772Z,14.99
2022-08-17T03:19:29.886Z,15.36
2022-08-17T03:20:25.880Z,15.93
2022-08-17T03:21:20.804Z,15.73
2022-08-17T03:22:36.186Z,17.01
2022-08-17T03:23:29.556Z,17.83
2022-08-17T03:24:26.814Z,15.69
2022-08-17T03:25:10.589Z,18.34
2022-08-17T03:25:53.139Z,17.83
2022-08-17T03:26:33.814Z,17.10
2022-08-17T03:27:14.046Z,17.04
2022-08-17T03:27:54.751Z,18.41
2022-08-17T03:28:34.849Z,20.49
2022-08-17T03:29:15.775Z,20.26
2022-08-17T03:29:55.894Z,17.60
2022-08-17T03:30:36.811Z,17.27
2022-08-17T03:31:18.330Z,17.31
2022-08-17T03:31:59.846Z,16.69
2022-08-17T03:32:46.919Z,17.01
2022-08-17T03:33:27.802Z,15.95
2022-08-17T03:34:07.877Z,16.24
2022-08-17T03:34:49.805Z,16.45
2022-08-17T03:35:36.346Z,17.27
2022-08-17T03:36:17.829Z,15.50
2022-08-17T03:36:57.836Z,14.35
2022-08-17T03:37:37.786Z,14.39
2022-08-17T03:38:18.956Z,15.97
2022-08-17T03:38:59.817Z,14.64
2022-08-17T03:39:39.942Z,13.80
2022-08-17T03:40:34.616Z,14.63
2022-08-17T03:41:27.846Z,14.38
2022-08-17T03:42:32.110Z,14.04
2022-08-17T03:43:27.885Z,14.59
2022-08-17T03:44:21.793Z,15.71
2022-08-17T03:45:17.903Z,15.66
2022-08-17T03:46:35.324Z,15.86
2022-08-17T03:47:47.820Z,13.16
2022-08-17T03:49:01.773Z,12.91
2022-08-17T03:50:13.726Z,15.41
2022-08-17T03:51:28.730Z,18.45
2022-08-17T03:52:32.842Z,18.67
2022-08-17T03:53:36.404Z,19.60
2022-08-17T03:54:36.737Z,20.69
2022-08-17T03:55:36.211Z,15.96
2022-08-17T03:56:35.719Z,14.54
2022-08-17T03:57:19.050Z,15.84
2022-08-17T03:57:59.734Z,14.04
2022-08-17T03:58:39.848Z,14.38
2022-08-17T03:59:24.745Z,15.19
2022-08-17T04:00:05.823Z,14.79
2022-08-17T04:00:46.726Z,14.48
2022-08-17T04:01:26.964Z,14.56
2022-08-17T04:02:24.730Z,15.49
2022-08-17T04:03:11.761Z,16.26
2022-08-17T04:04:05.713Z,15.00
2022-08-17T04:05:00.784Z,13.54
2022-08-17T04:05:54.752Z,15.39
2022-08-17T04:06:48.771Z,14.68
2022-08-17T04:07:44.818Z,13.98
2022-08-17T04:08:31.740Z,14.59
2022-08-17T04:09:05.769Z,14.88
2022-08-17T04:09:52.722Z,14.29
2022-08-17T04:10:26.830Z,14.40
2022-08-17T04:11:13.719Z,15.26
2022-08-17T04:11:47.819Z,14.24
2022-08-17T04:12:36.732Z,14.07
2022-08-17T04:13:11.175Z,14.60
2022-08-17T04:13:50.728Z,15.23
2022-08-17T04:14:36.086Z,16.25
2022-08-17T04:15:32.801Z,15.06
2022-08-17T04:16:12.768Z,16.31
2022-08-17T04:16:52.713Z,17.25
2022-08-17T04:17:35.786Z,17.42
2022-08-17T04:18:15.728Z,19.40
2022-08-17T04:19:02.745Z,16.02
2022-08-17T04:19:56.716Z,15.57
2022-08-17T04:20:50.717Z,16.59
2022-08-17T04:21:45.710Z,16.65
2022-08-17T04:22:40.700Z,14.95
2022-08-17T04:23:39.703Z,15.20
2022-08-17T04:24:26.741Z,15.95
2022-08-17T04:25:00.794Z,16.69
2022-08-17T04:25:55.722Z,18.20
2022-08-17T04:26:52.957Z,17.17
2022-08-17T04:27:36.708Z,16.64
2022-08-17T04:28:15.859Z,15.80
2022-08-17T04:29:04.698Z,15.18
2022-08-17T04:29:54.255Z,15.59
2022-08-17T04:30:51.727Z,16.41
2022-08-17T04:31:45.705Z,15.30
2022-08-17T04:33:03.452Z,16.34
2022-08-17T04:33:54.770Z,16.19
2022-08-17T04:34:48.757Z,15.45
2022-08-17T04:35:46.701Z,16.64
2022-08-17T04:36:40.694Z,20.31
2022-08-17T04:37:44.713Z,18.26
2022-08-17T04:38:41.706Z,16.83
2022-08-17T04:39:35.744Z,16.36
2022-08-17T04:40:35.711Z,18.09
2022-08-17T04:41:35.363Z,18.04
2022-08-17T04:42:23.673Z,18.17
2022-08-17T04:43:10.769Z,18.27
2022-08-17T04:43:53.706Z,17.52
2022-08-17T04:44:37.730Z,17.00
2022-08-17T04:45:18.712Z,19.30
2022-08-17T04:46:03.718Z,18.94
2022-08-17T04:46:42.775Z,18.60
2022-08-17T04:47:29.685Z,17.74
2022-08-17T04:48:04.219Z,17.27
2022-08-17T04:48:55.680Z,18.61
2022-08-17T04:49:29.783Z,20.96
2022-08-17T04:50:16.713Z,20.31
2022-08-17T04:50:55.762Z,19.36
2022-08-17T04:51:56.867Z,18.13
2022-08-17T04:52:52.847Z,17.70
2022-08-17T04:53:33.684Z,18.81
2022-08-17T04:54:25.781Z,19.00
2022-08-17T04:55:11.679Z,18.81
2022-08-17T04:55:51.749Z,20.05
2022-08-17T04:56:33.673Z,19.95
2022-08-17T04:57:13.789Z,19.84
2022-08-17T04:57:47.772Z,21.13
2022-08-17T04:58:34.689Z,19.61
2022-08-17T04:59:26.798Z,20.20
2022-08-17T05:00:16.677Z,19.64
2022-08-17T05:00:50.851Z,18.60
2022-08-17T05:01:40.722Z,18.26
2022-08-17T05:02:21.714Z,19.44
2022-08-17T05:03:15.669Z,21.34
2022-08-17T05:04:21.114Z,21.99
2022-08-17T05:05:39.711Z,21.16
2022-08-17T05:06:34.687Z,19.94
2022-08-17T05:07:31.607Z,19.55
2022-08-17T05:08:25.657Z,20.51
2022-08-17T05:09:19.678Z,21.81
2022-08-17T05:10:13.685Z,23.11
2022-08-17T05:11:07.699Z,23.05
2022-08-17T05:12:02.669Z,23.80
2022-08-17T05:12:49.838Z,21.31
2022-08-17T05:13:31.485Z,22.36
2022-08-17T05:14:19.716Z,22.24
2022-08-17T05:14:53.731Z,22.73
2022-08-17T05:15:44.965Z,22.10
2022-08-17T05:16:21.756Z,23.33
2022-08-17T05:17:11.149Z,22.16
2022-08-17T05:17:45.739Z,21.21
2022-08-17T05:18:26.692Z,22.14
2022-08-17T05:19:06.773Z,23.04
2022-08-17T05:19:51.979Z,25.36
2022-08-17T05:20:33.738Z,22.79
2022-08-17T05:21:14.653Z,23.16
2022-08-17T05:21:54.749Z,24.98
2022-08-17T05:22:35.669Z,22.77
2022-08-17T05:23:18.778Z,22.65
2022-08-17T05:23:59.689Z,21.42
2022-08-17T05:24:43.673Z,20.80
2022-08-17T05:25:38.671Z,21.40
2022-08-17T05:26:26.815Z,22.39
2022-08-17T05:27:07.669Z,21.61
2022-08-17T05:27:47.727Z,21.06
2022-08-17T05:28:29.668Z,21.39
2022-08-17T05:29:16.691Z,22.19
2022-08-17T05:30:10.658Z,23.17
2022-08-17T05:31:04.682Z,25.16
2022-08-17T05:31:58.669Z,25.33
2022-08-17T05:32:52.738Z,22.94
2022-08-17T05:33:50.633Z,23.38
2022-08-17T05:34:37.785Z,26.25
2022-08-17T05:35:13.833Z,30.99
2022-08-17T05:36:04.656Z,31.21
2022-08-17T05:36:44.016Z,30.73
2022-08-17T05:37:31.654Z,30.61
2022-08-17T05:38:08.236Z,29.00
2022-08-17T05:38:56.656Z,28.92
2022-08-17T05:39:31.863Z,29.05
2022-08-17T05:40:13.682Z,27.98
2022-08-17T05:40:55.097Z,28.00
2022-08-17T05:41:34.637Z,27.61
2022-08-17T05:42:14.693Z,26.92
2022-08-17T05:42:58.651Z,24.91
2022-08-17T05:43:45.744Z,24.30
2022-08-17T05:44:25.665Z,23.85
2022-08-17T05:45:05.726Z,23.64
2022-08-17T05:46:10.728Z,24.64
2022-08-17T05:46:56.720Z,24.52
2022-08-17T05:47:37.627Z,27.16
2022-08-17T05:48:17.707Z,25.71
2022-08-17T05:49:09.661Z,25.96
2022-08-17T05:49:49.896Z,27.63
2022-08-17T05:50:35.672Z,25.15
2022-08-17T05:51:47.666Z,24.75
2022-08-17T05:53:01.638Z,25.81
2022-08-17T05:54:14.621Z,25.16
2022-08-17T05:55:46.685Z,24.04
2022-08-17T05:57:11.665Z,24.49
2022-08-17T05:58:20.652Z,25.15
2022-08-17T05:59:20.641Z,28.49
2022-08-17T06:00:31.675Z,25.34
2022-08-17T06:01:47.627Z,23.13
2022-08-17T06:03:17.762Z,24.23
2022-08-17T06:04:09.707Z,24.63
2022-08-17T06:05:39.634Z,22.00
2022-08-17T06:06:48.698Z,23.31
2022-08-17T06:07:55.700Z,23.61
2022-08-17T06:09:10.661Z,23.90
2022-08-17T06:09:56.968Z,26.11
2022-08-17T06:11:25.652Z,25.56
2022-08-17T06:12:38.834Z,25.21
2022-08-17T06:14:21.638Z,25.83
2022-08-17T06:15:36.721Z,22.75
2022-08-17T06:16:34.375Z,23.94
2022-08-17T06:17:16.712Z,25.06
2022-08-17T06:18:09.629Z,22.20
2022-08-17T06:19:06.436Z,23.36
2022-08-17T06:19:50.700Z,23.85
2022-08-17T06:20:24.714Z,22.73
2022-08-17T06:21:03.709Z,23.44
2022-08-17T06:21:49.660Z,23.26
2022-08-17T06:22:27.282Z,22.54
2022-08-17T06:23:13.133Z,23.09
2022-08-17T06:24:34.617Z,22.55
2022-08-17T06:25:32.640Z,22.45
2022-08-17T06:26:16.329Z,23.55
2022-08-17T06:27:04.595Z,23.36
2022-08-17T06:28:17.843Z,23.04
2022-08-17T06:29:20.617Z,24.15
2022-08-17T06:30:18.760Z,22.88
2022-08-17T06:31:08.656Z,24.17
2022-08-17T06:31:43.676Z,24.15
2022-08-17T06:32:17.405Z,23.99
2022-08-17T06:32:59.626Z,23.69
2022-08-17T06:33:42.721Z,22.61
2022-08-17T06:34:16.316Z,22.13
2022-08-17T06:34:57.626Z,22.56
2022-08-17T06:36:19.639Z,23.19
2022-08-17T06:37:39.132Z,21.10
2022-08-17T06:38:54.589Z,21.67
2022-08-17T06:39:48.852Z,21.24
2022-08-17T06:41:08.629Z,21.95
2022-08-17T06:42:09.648Z,21.23
2022-08-17T06:43:48.008Z,19.98
2022-08-17T06:44:57.604Z,19.44
2022-08-17T06:45:49.181Z,20.73
2022-08-17T06:46:49.666Z,20.61
2022-08-17T06:47:43.643Z,19.34
2022-08-17T06:48:41.917Z,17.86
2022-08-17T06:49:30.493Z,17.71
2022-08-17T06:50:26.641Z,19.90
2022-08-17T06:51:29.650Z,19.23
2022-08-17T06:52:42.137Z,17.71
2022-08-17T06:53:58.666Z,18.02
2022-08-17T06:54:41.811Z,16.92
2022-08-17T06:55:47.304Z,18.79
2022-08-17T06:56:53.943Z,19.61
2022-08-17T06:57:35.094Z,17.79
2022-08-17T06:58:16.313Z,19.29
2022-08-17T06:58:57.595Z,18.59
2022-08-17T06:59:54.990Z,20.06
2022-08-17T07:00:41.710Z,18.55
2022-08-17T07:01:37.653Z,19.13
2022-08-17T07:02:20.277Z,19.09
2022-08-17T07:03:46.584Z,18.49
2022-08-17T07:04:30.682Z,17.41
2022-08-17T07:05:12.678Z,19.01
2022-08-17T07:06:04.591Z,17.71
2022-08-17T07:06:54.682Z,15.46
2022-08-17T07:08:03.622Z,16.90
2022-08-17T07:08:43.658Z,16.36
2022-08-17T07:09:37.608Z,13.56
2022-08-17T07:10:12.691Z,13.90
2022-08-17T07:11:03.575Z,14.26
2022-08-17T07:11:44.625Z,16.40
2022-08-17T07:12:36.569Z,14.85
2022-08-17T07:13:40.656Z,14.82
2022-08-17T07:15:04.609Z,13.35
2022-08-17T07:15:48.653Z,15.14
2022-08-17T07:16:48.564Z,14.90
2022-08-17T07:17:47.669Z,13.98
2022-08-17T07:18:39.578Z,13.96
2022-08-17T07:19:13.665Z,15.73
2022-08-17T07:20:11.625Z,16.10
2022-08-17T07:20:50.858Z,14.43
2022-08-17T07:22:04.602Z,14.44
2022-08-17T07:22:59.884Z,15.81
2022-08-17T07:24:39.578Z,13.10
2022-08-17T07:25:27.603Z,14.14
2022-08-17T07:26:23.569Z,14.44
2022-08-17T07:27:21.581Z,13.80
2022-08-17T07:28:19.604Z,13.64
2022-08-17T07:29:14.574Z,12.88
2022-08-17T07:30:22.591Z,13.36
2022-08-17T07:31:03.599Z,14.32
2022-08-17T07:31:43.621Z,12.74
2022-08-17T07:32:33.567Z,11.52
2022-08-17T07:33:25.710Z,12.52
2022-08-17T07:34:17.577Z,12.80
2022-08-17T07:35:41.212Z,12.79
2022-08-17T07:36:31.590Z,15.71
2022-08-17T07:37:12.653Z,12.69
2022-08-17T07:37:59.578Z,11.71
2022-08-17T07:38:41.614Z,15.79
2022-08-17T07:39:34.617Z,21.02
2022-08-17T07:40:57.986Z,18.40
2022-08-17T07:41:57.442Z,13.74
2022-08-17T07:42:43.123Z,12.61
2022-08-17T07:43:34.574Z,11.19
2022-08-17T07:44:22.662Z,12.40
2022-08-17T07:45:04.568Z,12.30
2022-08-17T07:46:18.046Z,13.09
2022-08-17T07:47:19.632Z,12.41
2022-08-17T07:48:18.381Z,11.20
2022-08-17T07:49:06.580Z,10.68
2022-08-17T07:49:50.705Z,10.57
2022-08-17T07:50:36.573Z,10.04
2022-08-17T07:51:29.700Z,11.02
2022-08-17T07:52:48.196Z,10.15
2022-08-17T07:53:32.692Z,10.57
2022-08-17T07:54:21.605Z,11.80
2022-08-17T07:55:02.428Z,9.94
2022-08-17T07:55:47.569Z,10.84
2022-08-17T07:56:48.646Z,12.07
2022-08-17T07:57:39.646Z,10.90
2022-08-17T07:58:26.481Z,10.35
2022-08-17T07:59:24.597Z,10.35
2022-08-17T08:00:12.785Z,11.89
2022-08-17T08:01:18.610Z,12.50
2022-08-17T08:02:30.128Z,12.16
2022-08-17T08:03:35.875Z,9.77
2022-08-17T08:04:59.323Z,9.43
2022-08-17T08:05:49.357Z,9.84
2022-08-17T08:06:32.742Z,10.01
2022-08-17T08:07:23.568Z,10.01
2022-08-17T08:08:11.633Z,10.48
2022-08-17T08:09:01.645Z,11.34
2022-08-17T08:09:50.778Z,10.86
2022-08-17T08:10:47.529Z,10.26
2022-08-17T08:11:44.444Z,10.61
2022-08-17T08:12:40.556Z,10.48
2022-08-17T08:13:30.798Z,10.09
2022-08-17T08:14:39.585Z,9.24
2022-08-17T08:15:30.163Z,9.70
2022-08-17T08:16:32.533Z,10.13
2022-08-17T08:17:14.631Z,9.50
2022-08-17T08:18:04.534Z,10.30
2022-08-17T08:18:55.620Z,9.71
2022-08-17T08:19:40.890Z,9.16
2022-08-17T08:20:53.235Z,9.04
2022-08-17T08:21:37.631Z,9.41
2022-08-17T08:22:45.548Z,9.32
2022-08-17T08:23:40.977Z,9.21
2022-08-17T08:25:04.582Z,9.40
2022-08-17T08:26:05.241Z,9.84
2022-08-17T08:27:43.612Z,9.98
2022-08-17T08:29:10.547Z,10.71
2022-08-17T08:30:21.607Z,10.27
2022-08-17T08:31:42.448Z,10.26
2022-08-17T08:32:50.419Z,10.09
2022-08-17T08:34:53.394Z,10.41
2022-08-17T08:35:53.547Z,9.67
2022-08-17T08:37:02.464Z,9.94
2022-08-17T08:38:17.561Z,10.32
2022-08-17T08:39:13.631Z,10.31
2022-08-17T08:40:17.559Z,10.96
2022-08-17T08:41:29.581Z,11.01
2022-08-17T08:42:50.546Z,10.13
2022-08-17T08:44:11.531Z,9.50
2022-08-17T08:45:34.574Z,9.71
2022-08-17T08:47:06.591Z,10.39
2022-08-17T08:48:23.008Z,9.46
2022-08-17T08:50:03.962Z,9.81
2022-08-17T08:51:25.526Z,9.26
2022-08-17T08:52:44.554Z,9.36
2022-08-17T08:54:13.524Z,11.32
2022-08-17T08:55:22.509Z,12.09
2022-08-17T08:56:59.184Z,9.66
2022-08-17T08:58:41.091Z,9.07
2022-08-17T09:00:10.514Z,9.52
2022-08-17T09:01:08.534Z,10.18
2022-08-17T09:03:00.499Z,8.93
2022-08-17T09:04:24.022Z,9.74
2022-08-17T09:05:29.598Z,9.41
2022-08-17T09:06:38.812Z,10.95
2022-08-17T09:07:38.306Z,11.13
2022-08-17T09:09:03.532Z,9.36
2022-08-17T09:10:26.578Z,9.27
2022-08-17T09:12:02.124Z,8.51
2022-08-17T09:13:31.505Z,9.00
2022-08-17T09:14:45.187Z,9.24
2022-08-17T09:15:52.522Z,8.74
2022-08-17T09:16:58.494Z,10.25
2022-08-17T09:19:02.414Z,9.41
2022-08-17T09:19:52.714Z,9.91
2022-08-17T09:21:05.548Z,10.41
2022-08-17T09:22:10.494Z,9.49
2022-08-17T09:23:16.485Z,8.96
2022-08-17T09:24:27.514Z,8.96
2022-08-17T09:25:46.509Z,9.19
2022-08-17T09:27:05.526Z,8.86
2022-08-17T09:28:13.333Z,8.59
2022-08-17T09:28:59.488Z,8.49
2022-08-17T09:29:40.624Z,8.35
2022-08-17T09:30:21.510Z,8.14
2022-08-17T09:31:07.570Z,8.79
2022-08-17T09:32:24.545Z,8.75
2022-08-17T09:33:11.561Z,8.55
2022-08-17T09:33:54.501Z,8.95
2022-08-17T09:34:49.558Z,8.99
2022-08-17T09:35:37.643Z,8.36
2022-08-17T09:36:37.538Z,8.86
2022-08-17T09:37:38.515Z,9.60
2022-08-17T09:38:46.560Z,10.45
2022-08-17T09:39:36.553Z,10.79
2022-08-17T09:40:37.538Z,10.00
2022-08-17T09:41:31.468Z,9.11
2022-08-17T09:42:29.150Z,8.74
2022-08-17T09:43:40.524Z,8.98
2022-08-17T09:44:46.545Z,9.41
2022-08-17T09:45:41.498Z,8.74
2022-08-17T09:46:39.592Z,9.90
2022-08-17T09:48:11.481Z,9.86
2022-08-17T09:49:26.505Z,9.82
2022-08-17T09:51:03.736Z,10.61
2022-08-17T09:52:05.491Z,9.91
2022-08-17T09:52:59.480Z,8.50
2022-08-17T09:53:54.470Z,8.71
2022-08-17T09:54:45.497Z,8.64
2022-08-17T09:55:19.543Z,8.45
2022-08-17T09:56:13.501Z,8.61
2022-08-17T09:57:32.126Z,10.35
2022-08-17T09:59:06.474Z,9.49
2022-08-17T10:00:22.494Z,8.77
2022-08-17T10:01:24.596Z,8.56
2022-08-17T10:02:43.450Z,7.05
2022-08-17T10:04:05.541Z,6.97
2022-08-17T10:05:11.456Z,7.61
2022-08-17T10:06:09.494Z,8.05
2022-08-17T10:07:11.574Z,8.81
2022-08-17T10:08:09.450Z,6.49
2022-08-17T10:08:57.323Z,6.96
2022-08-17T10:10:14.364Z,7.93
2022-08-17T10:11:03.437Z,9.71
2022-08-17T10:12:22.558Z,8.02
2022-08-17T10:13:12.539Z,7.64
2022-08-17T10:14:24.097Z,7.40
2022-08-17T10:15:48.624Z,7.99
2022-08-17T10:16:44.503Z,9.09
2022-08-17T10:17:48.511Z,9.46
2022-08-17T10:19:11.464Z,7.61
2022-08-17T10:20:31.498Z,7.68
2022-08-17T10:21:47.458Z,7.82
2022-08-17T10:23:29.486Z,7.69
2022-08-17T10:25:21.435Z,8.32
2022-08-17T10:26:24.457Z,9.32
2022-08-17T10:27:25.451Z,7.89
2022-08-17T10:28:28.922Z,8.84
2022-08-17T10:29:16.489Z,8.44
2022-08-17T10:30:04.411Z,8.90
2022-08-17T10:31:10.484Z,9.29
2022-08-17T10:32:07.015Z,8.24
2022-08-17T10:33:01.453Z,8.85
2022-08-17T10:34:13.884Z,8.16
2022-08-17T10:35:16.475Z,7.68
2022-08-17T10:36:13.513Z,8.16
2022-08-17T10:37:26.484Z,7.70
2022-08-17T10:38:19.546Z,7.26
2022-08-17T10:39:31.477Z,7.20
2022-08-17T10:40:41.464Z,7.28
2022-08-17T10:41:46.451Z,7.35
2022-08-17T10:43:03.446Z,8.02
2022-08-17T10:44:39.756Z,7.16
2022-08-17T10:46:09.432Z,7.21
2022-08-17T10:47:24.435Z,7.14
2022-08-17T10:48:21.474Z,7.01
2022-08-17T10:49:30.464Z,7.31
2022-08-17T10:50:56.465Z,7.82
2022-08-17T10:51:54.479Z,7.46
2022-08-17T10:52:54.413Z,7.61
2022-08-17T10:53:48.452Z,8.16
2022-08-17T10:55:05.444Z,8.09
2022-08-17T10:56:25.474Z,7.68
2022-08-17T10:57:44.456Z,9.01
2022-08-17T10:58:38.433Z,11.09
2022-08-17T10:59:50.436Z,8.16
2022-08-17T11:00:53.443Z,8.07
2022-08-17T11:01:40.470Z,8.00
2022-08-17T11:02:49.181Z,8.74
2022-08-17T11:03:39.426Z,8.17
2022-08-17T11:04:25.574Z,7.61
2022-08-17T11:05:24.421Z,8.18
2022-08-17T11:06:15.828Z,7.88
2022-08-17T11:07:34.439Z,7.79
2022-08-17T11:09:04.579Z,8.54
2022-08-17T11:10:15.426Z,7.34
2022-08-17T11:11:16.517Z,7.32
2022-08-17T11:12:28.425Z,6.70
2022-08-17T11:13:28.515Z,6.74
2022-08-17T11:14:58.425Z,9.16
2022-08-17T11:16:29.421Z,9.80
2022-08-17T11:18:12.428Z,8.70
2022-08-17T11:19:44.433Z,8.07
2022-08-17T11:20:52.658Z,7.59
2022-08-17T11:22:12.490Z,6.59
2022-08-17T11:23:05.590Z,6.68
2022-08-17T11:24:07.424Z,6.56
2022-08-17T11:24:59.430Z,6.90
2022-08-17T11:25:58.434Z,6.38
2022-08-17T11:26:57.462Z,6.63
2022-08-17T11:27:53.957Z,6.72
2022-08-17T11:29:05.691Z,6.55
2022-08-17T11:30:21.892Z,6.69
2022-08-17T11:31:41.423Z,6.32
2022-08-17T11:33:04.405Z,6.21
2022-08-17T11:34:36.415Z,5.93
2022-08-17T11:35:46.436Z,5.64
2022-08-17T11:37:29.738Z,6.49
2022-08-17T11:39:09.449Z,6.21
2022-08-17T11:40:17.491Z,5.97
2022-08-17T11:41:39.456Z,6.01
2022-08-17T11:43:03.758Z,6.40
2022-08-17T11:44:22.454Z,7.21
2022-08-17T11:45:10.497Z,8.10
2022-08-17T11:46:57.455Z,6.14
2022-08-17T11:48:29.247Z,6.34
2022-08-17T11:49:45.422Z,6.19
2022-08-17T11:50:55.843Z,5.69
2022-08-17T11:52:14.426Z,5.70
2022-08-17T11:53:08.402Z,5.90
2022-08-17T11:54:31.251Z,6.68
2022-08-17T11:55:35.097Z,7.06
2022-08-17T11:56:55.382Z,6.90
2022-08-17T11:57:52.417Z,7.00
2022-08-17T11:58:51.494Z,7.29
2022-08-17T11:59:43.382Z,7.21
2022-08-17T12:00:56.485Z,6.51
2022-08-17T12:01:39.397Z,7.55
2022-08-17T12:02:47.881Z,6.61
2022-08-17T12:03:38.409Z,5.69
2022-08-17T12:04:38.538Z,6.40
2022-08-17T12:05:21.382Z,6.99
2022-08-17T12:06:17.571Z,6.81
2022-08-17T12:07:22.403Z,5.94
2022-08-17T12:08:19.713Z,6.06
2022-08-17T12:09:08.413Z,6.68